SXS8DG LTBJ-EDLW
Flight info
| Callsign | SXS8DG |
|---|---|
| Flight time | N/A |
| Altitude | 38000 |
| Route | VEXOL UY134 NEMIS UL608 GIKAS/N0450F380 DCT FSK UN128 RUGAS DCT RAXAD DCT SOSEK DCT BABIT DCT SASAL DCT DEXIT DCT LULAR DCT KULOK DCT RUNEN DCT FULNO/N0450F300 T842 IDEWE/N0413F240 T842 ADEMI ADEMI2A |
| Aircraft | B38M/M-SDE1FGHILORVWXY/HB1 |
Departure
| Time | N/A |
|---|---|
| Airport | Adnan Menderes International Airport (LTBJ) |
Arrival
| Time | 2026-05-06 18:21 |
|---|---|
| Airport | Dortmund Airport (EDLW) |
| Time | Latitude | Longitude | Altitude | Speed | Heading |
|---|---|---|---|---|---|
| 2026-05-06 17:27 | 48.34235 | 14.52535 | 37684 ft | 439 kts | 302° |
| 2026-05-06 17:28 | 48.36124 | 14.48921 | 37675 ft | 439 kts | 302° |
| 2026-05-06 17:28 | 48.39874 | 14.41730 | 37688 ft | 439 kts | 302° |
| 2026-05-06 17:29 | 48.43645 | 14.34481 | 37689 ft | 441 kts | 302° |
| 2026-05-06 17:29 | 48.47445 | 14.27157 | 37681 ft | 445 kts | 301° |
| 2026-05-06 17:30 | 48.51248 | 14.19805 | 37682 ft | 445 kts | 301° |
| 2026-05-06 17:30 | 48.55051 | 14.12434 | 37690 ft | 445 kts | 301° |
| 2026-05-06 17:31 | 48.58843 | 14.05063 | 37691 ft | 445 kts | 301° |
| 2026-05-06 17:31 | 48.62638 | 13.97669 | 37693 ft | 447 kts | 301° |
| 2026-05-06 17:32 | 48.66466 | 13.90192 | 37688 ft | 451 kts | 301° |
| 2026-05-06 17:32 | 48.70303 | 13.82681 | 37702 ft | 451 kts | 302° |
| 2026-05-06 17:33 | 48.74127 | 13.75173 | 37695 ft | 450 kts | 302° |
| 2026-05-06 17:33 | 48.78222 | 13.67959 | 37704 ft | 454 kts | 308° |
| 2026-05-06 17:34 | 48.82635 | 13.61068 | 37709 ft | 456 kts | 309° |
| 2026-05-06 17:34 | 48.87073 | 13.54164 | 37704 ft | 457 kts | 309° |
| 2026-05-06 17:35 | 48.91510 | 13.47246 | 37713 ft | 457 kts | 309° |
| 2026-05-06 17:35 | 48.95943 | 13.40316 | 37709 ft | 457 kts | 309° |
| 2026-05-06 17:36 | 49.02576 | 13.29911 | 37746 ft | 457 kts | 309° |
| 2026-05-06 17:36 | 49.07008 | 13.22935 | 37708 ft | 458 kts | 309° |
| 2026-05-06 17:37 | 49.11436 | 13.15946 | 37688 ft | 458 kts | 309° |
| 2026-05-06 17:37 | 49.15832 | 13.08989 | 37741 ft | 459 kts | 309° |
| 2026-05-06 17:38 | 49.20252 | 13.01975 | 37738 ft | 458 kts | 309° |
| 2026-05-06 17:38 | 49.24671 | 12.94943 | 37706 ft | 458 kts | 309° |
| 2026-05-06 17:39 | 49.29077 | 12.87912 | 37733 ft | 458 kts | 309° |
| 2026-05-06 17:39 | 49.33479 | 12.80871 | 37718 ft | 457 kts | 309° |
| 2026-05-06 17:40 | 49.37906 | 12.73865 | 37749 ft | 458 kts | 309° |
| 2026-05-06 17:40 | 49.42369 | 12.66889 | 37722 ft | 457 kts | 309° |
| 2026-05-06 17:41 | 49.46819 | 12.59905 | 37751 ft | 458 kts | 309° |
| 2026-05-06 17:41 | 49.51291 | 12.52866 | 37734 ft | 461 kts | 309° |
| 2026-05-06 17:42 | 49.55770 | 12.45797 | 37727 ft | 461 kts | 309° |
| 2026-05-06 17:42 | 49.60239 | 12.38724 | 37728 ft | 461 kts | 309° |
| 2026-05-06 17:43 | 49.64709 | 12.31630 | 37734 ft | 461 kts | 309° |
| 2026-05-06 17:43 | 49.69170 | 12.24529 | 37763 ft | 461 kts | 309° |
| 2026-05-06 17:44 | 49.73588 | 12.17329 | 37756 ft | 459 kts | 304° |
| 2026-05-06 17:44 | 49.77679 | 12.09749 | 37763 ft | 460 kts | 305° |
| 2026-05-06 17:45 | 49.81816 | 12.02202 | 37753 ft | 460 kts | 305° |
| 2026-05-06 17:45 | 49.85953 | 11.94652 | 37765 ft | 460 kts | 305° |
| 2026-05-06 17:46 | 49.90080 | 11.87100 | 37780 ft | 459 kts | 305° |
| 2026-05-06 17:46 | 49.94201 | 11.79539 | 37748 ft | 458 kts | 305° |
| 2026-05-06 17:47 | 49.98313 | 11.71972 | 37758 ft | 458 kts | 305° |
| 2026-05-06 17:47 | 50.02417 | 11.64396 | 37753 ft | 458 kts | 305° |
| 2026-05-06 17:48 | 50.06517 | 11.56808 | 37762 ft | 458 kts | 304° |
| 2026-05-06 17:48 | 50.10603 | 11.49223 | 37785 ft | 455 kts | 304° |
| 2026-05-06 17:49 | 50.14678 | 11.41635 | 37774 ft | 457 kts | 304° |
| 2026-05-06 17:49 | 50.18753 | 11.34024 | 37770 ft | 457 kts | 304° |
| 2026-05-06 17:50 | 50.22827 | 11.26394 | 37776 ft | 457 kts | 304° |
| 2026-05-06 17:50 | 50.26893 | 11.18757 | 37780 ft | 457 kts | 304° |
| 2026-05-06 17:51 | 50.30954 | 11.11106 | 37794 ft | 457 kts | 305° |
| 2026-05-06 17:51 | 50.35019 | 11.03423 | 37773 ft | 459 kts | 305° |
| 2026-05-06 17:52 | 50.39072 | 10.95746 | 37779 ft | 456 kts | 305° |
| 2026-05-06 17:52 | 50.43105 | 10.88074 | 37451 ft | 452 kts | 304° |
| 2026-05-06 17:53 | 50.45111 | 10.84254 | 36488 ft | 457 kts | 304° |
| 2026-05-06 17:53 | 50.47139 | 10.80386 | 35726 ft | 457 kts | 304° |
| 2026-05-06 17:53 | 50.49148 | 10.76550 | 35169 ft | 453 kts | 303° |
| 2026-05-06 17:53 | 50.51152 | 10.72713 | 34282 ft | 457 kts | 303° |
| 2026-05-06 17:54 | 50.53164 | 10.68864 | 33677 ft | 454 kts | 303° |
| 2026-05-06 17:54 | 50.55172 | 10.65009 | 32539 ft | 460 kts | 304° |
| 2026-05-06 17:54 | 50.57178 | 10.61156 | 31790 ft | 459 kts | 304° |
| 2026-05-06 17:54 | 50.58998 | 10.57124 | 31801 ft | 450 kts | 294° |
| 2026-05-06 17:55 | 50.61881 | 10.48368 | 31767 ft | 451 kts | 292° |
| 2026-05-06 17:55 | 50.64761 | 10.39614 | 31782 ft | 451 kts | 292° |
| 2026-05-06 17:56 | 50.67643 | 10.30808 | 31808 ft | 452 kts | 292° |
| 2026-05-06 17:56 | 50.70062 | 10.23393 | 31769 ft | 455 kts | 292° |
| 2026-05-06 17:57 | 50.72932 | 10.14569 | 31377 ft | 454 kts | 293° |
| 2026-05-06 17:57 | 50.74363 | 10.10158 | 30607 ft | 452 kts | 293° |
| 2026-05-06 17:57 | 50.75791 | 10.05746 | 29789 ft | 452 kts | 294° |
| 2026-05-06 17:58 | 50.77226 | 10.01303 | 28855 ft | 452 kts | 294° |
| 2026-05-06 17:58 | 50.78651 | 9.96885 | 27956 ft | 452 kts | 294° |
| 2026-05-06 17:58 | 50.80077 | 9.92457 | 27084 ft | 451 kts | 294° |
| 2026-05-06 17:58 | 50.81494 | 9.88046 | 26263 ft | 450 kts | 294° |
| 2026-05-06 17:59 | 50.82913 | 9.83623 | 25454 ft | 449 kts | 294° |
| 2026-05-06 17:59 | 50.84322 | 9.79223 | 24657 ft | 447 kts | 294° |
| 2026-05-06 17:59 | 50.85717 | 9.74861 | 24109 ft | 440 kts | 294° |
| 2026-05-06 17:59 | 50.87064 | 9.70590 | 23751 ft | 428 kts | 291° |
| 2026-05-06 18:00 | 50.88190 | 9.66309 | 23686 ft | 417 kts | 290° |
| 2026-05-06 18:00 | 50.89304 | 9.62084 | 23601 ft | 416 kts | 290° |
| 2026-05-06 18:00 | 50.90427 | 9.57868 | 22821 ft | 415 kts | 290° |
| 2026-05-06 18:00 | 50.91548 | 9.53669 | 22145 ft | 412 kts | 290° |
| 2026-05-06 18:01 | 50.92653 | 9.49532 | 21803 ft | 402 kts | 290° |
| 2026-05-06 18:01 | 50.93724 | 9.45445 | 21404 ft | 401 kts | 290° |
| 2026-05-06 18:01 | 50.94792 | 9.41364 | 21069 ft | 399 kts | 290° |
| 2026-05-06 18:01 | 50.95849 | 9.37316 | 20735 ft | 397 kts | 290° |
| 2026-05-06 18:02 | 50.96901 | 9.33283 | 20375 ft | 395 kts | 289° |
| 2026-05-06 18:02 | 50.97948 | 9.29266 | 20033 ft | 393 kts | 289° |
| 2026-05-06 18:02 | 50.98988 | 9.25269 | 19681 ft | 390 kts | 289° |
| 2026-05-06 18:02 | 51.00020 | 9.21293 | 19323 ft | 389 kts | 289° |
| 2026-05-06 18:03 | 51.01045 | 9.17340 | 18984 ft | 387 kts | 289° |
| 2026-05-06 18:03 | 51.02065 | 9.13394 | 18644 ft | 385 kts | 289° |
| 2026-05-06 18:03 | 51.03080 | 9.09464 | 18297 ft | 383 kts | 289° |
| 2026-05-06 18:03 | 51.04086 | 9.05563 | 17944 ft | 381 kts | 289° |
| 2026-05-06 18:04 | 51.05088 | 9.01673 | 17573 ft | 379 kts | 289° |
| 2026-05-06 18:04 | 51.06070 | 8.97851 | 17231 ft | 378 kts | 289° |
| 2026-05-06 18:04 | 51.07059 | 8.93998 | 16863 ft | 376 kts | 289° |
| 2026-05-06 18:04 | 51.08041 | 8.90162 | 16545 ft | 374 kts | 289° |
| 2026-05-06 18:05 | 51.09020 | 8.86338 | 16223 ft | 373 kts | 289° |
| 2026-05-06 18:05 | 51.09994 | 8.82525 | 15910 ft | 369 kts | 289° |
| 2026-05-06 18:05 | 51.10949 | 8.78808 | 15745 ft | 358 kts | 291° |
| 2026-05-06 18:05 | 51.12149 | 8.75384 | 15571 ft | 350 kts | 297° |
| 2026-05-06 18:06 | 51.13374 | 8.71991 | 15355 ft | 358 kts | 296° |
| 2026-05-06 18:06 | 51.14579 | 8.68600 | 15198 ft | 347 kts | 296° |
| 2026-05-06 18:06 | 51.15742 | 8.65290 | 15018 ft | 337 kts | 296° |
| 2026-05-06 18:06 | 51.16865 | 8.62074 | 14845 ft | 328 kts | 296° |
| 2026-05-06 18:07 | 51.17953 | 8.58948 | 14686 ft | 318 kts | 296° |
| 2026-05-06 18:07 | 51.19011 | 8.55903 | 14558 ft | 309 kts | 296° |
| 2026-05-06 18:07 | 51.20026 | 8.52953 | 14424 ft | 298 kts | 293° |
| 2026-05-06 18:07 | 51.20790 | 8.49947 | 14292 ft | 287 kts | 288° |
| 2026-05-06 18:08 | 51.21499 | 8.47002 | 14166 ft | 284 kts | 288° |
| 2026-05-06 18:08 | 51.22217 | 8.44065 | 14043 ft | 284 kts | 288° |
| 2026-05-06 18:08 | 51.22941 | 8.41137 | 13909 ft | 284 kts | 288° |
| 2026-05-06 18:08 | 51.23670 | 8.38207 | 13643 ft | 284 kts | 289° |
| 2026-05-06 18:09 | 51.24402 | 8.35273 | 13253 ft | 286 kts | 289° |
| 2026-05-06 18:09 | 51.25140 | 8.32317 | 12844 ft | 286 kts | 289° |
| 2026-05-06 18:09 | 51.25879 | 8.29361 | 12463 ft | 287 kts | 289° |
| 2026-05-06 18:09 | 51.26616 | 8.26404 | 12070 ft | 287 kts | 289° |
| 2026-05-06 18:10 | 51.27352 | 8.23451 | 11711 ft | 286 kts | 289° |
| 2026-05-06 18:10 | 51.28088 | 8.20497 | 11336 ft | 286 kts | 289° |
| 2026-05-06 18:10 | 51.28822 | 8.17541 | 10963 ft | 286 kts | 289° |
| 2026-05-06 18:10 | 51.29558 | 8.14578 | 10570 ft | 287 kts | 289° |
| 2026-05-06 18:11 | 51.30292 | 8.11612 | 10204 ft | 287 kts | 290° |
| 2026-05-06 18:11 | 51.31027 | 8.08646 | 9825 ft | 288 kts | 291° |
| 2026-05-06 18:11 | 51.31764 | 8.05667 | 9423 ft | 288 kts | 291° |
| 2026-05-06 18:11 | 51.32499 | 8.02689 | 9025 ft | 288 kts | 291° |
| 2026-05-06 18:12 | 51.33234 | 7.99711 | 8637 ft | 287 kts | 291° |
| 2026-05-06 18:12 | 51.33960 | 7.96737 | 8264 ft | 286 kts | 289° |
| 2026-05-06 18:12 | 51.34499 | 7.93681 | 7895 ft | 285 kts | 283° |
| 2026-05-06 18:12 | 51.34964 | 7.90614 | 7529 ft | 284 kts | 283° |
| 2026-05-06 18:13 | 51.35420 | 7.87592 | 7161 ft | 281 kts | 283° |
| 2026-05-06 18:13 | 51.35876 | 7.84524 | 6872 ft | 277 kts | 283° |
| 2026-05-06 18:13 | 51.36313 | 7.81591 | 6859 ft | 264 kts | 283° |
| 2026-05-06 18:13 | 51.36732 | 7.78785 | 6481 ft | 264 kts | 283° |
| 2026-05-06 18:14 | 51.37156 | 7.75906 | 5871 ft | 268 kts | 283° |
| 2026-05-06 18:14 | 51.37566 | 7.72995 | 5379 ft | 267 kts | 283° |
| 2026-05-06 18:14 | 51.37950 | 7.70111 | 5013 ft | 262 kts | 283° |
| 2026-05-06 18:14 | 51.38312 | 7.67296 | 4738 ft | 253 kts | 283° |
| 2026-05-06 18:15 | 51.38639 | 7.64578 | 4460 ft | 246 kts | 283° |
| 2026-05-06 18:15 | 51.38953 | 7.61911 | 4220 ft | 242 kts | 283° |
| 2026-05-06 18:15 | 51.39260 | 7.59277 | 4001 ft | 238 kts | 283° |
| 2026-05-06 18:15 | 51.39553 | 7.56718 | 3862 ft | 231 kts | 283° |
| 2026-05-06 18:16 | 51.39843 | 7.54205 | 3570 ft | 228 kts | 283° |
| 2026-05-06 18:16 | 51.40125 | 7.51741 | 3250 ft | 222 kts | 283° |
| 2026-05-06 18:16 | 51.40393 | 7.49342 | 3022 ft | 212 kts | 283° |
| 2026-05-06 18:16 | 51.40638 | 7.47113 | 2961 ft | 195 kts | 283° |
| 2026-05-06 18:17 | 51.40850 | 7.45075 | 2967 ft | 176 kts | 283° |
| 2026-05-06 18:17 | 51.41146 | 7.43215 | 2934 ft | 170 kts | 304° |
| 2026-05-06 18:17 | 51.41983 | 7.42020 | 2943 ft | 161 kts | 335° |
| 2026-05-06 18:17 | 51.43040 | 7.41446 | 3045 ft | 161 kts | 357° |
| 2026-05-06 18:18 | 51.44137 | 7.41746 | 3004 ft | 164 kts | 25° |
| 2026-05-06 18:18 | 51.45007 | 7.42905 | 2837 ft | 166 kts | 51° |
| 2026-05-06 18:18 | 51.45713 | 7.44376 | 2615 ft | 166 kts | 51° |
| 2026-05-06 18:18 | 51.46371 | 7.45893 | 2485 ft | 166 kts | 54° |
| 2026-05-06 18:19 | 51.46975 | 7.47473 | 2309 ft | 166 kts | 57° |
| 2026-05-06 18:19 | 51.47548 | 7.49069 | 2114 ft | 165 kts | 58° |
| 2026-05-06 18:19 | 51.48113 | 7.50665 | 1884 ft | 165 kts | 57° |
| 2026-05-06 18:19 | 51.48677 | 7.52266 | 1673 ft | 164 kts | 58° |
| 2026-05-06 18:20 | 51.49229 | 7.53835 | 1443 ft | 158 kts | 58° |
| 2026-05-06 18:20 | 51.49750 | 7.55311 | 1253 ft | 144 kts | 57° |
| 2026-05-06 18:20 | 51.50224 | 7.56653 | 1027 ft | 134 kts | 57° |
| 2026-05-06 18:20 | 51.50677 | 7.57946 | 824 ft | 132 kts | 57° |
| 2026-05-06 18:21 | 51.51126 | 7.59237 | 658 ft | 134 kts | 58° |
| 2026-05-06 18:21 | 51.51586 | 7.60530 | 447 ft | 132 kts | 56° |
| 2026-05-06 18:21 | 51.51947 | 7.61545 | 412 ft | 53 kts | 60° |
| 2026-05-06 18:21 | 51.52072 | 7.61901 | 418 ft | 37 kts | 60° |
| 2026-05-06 18:22 | 51.52185 | 7.62223 | 415 ft | 12 kts | 61° |
| 2026-05-06 18:22 | 51.52172 | 7.62322 | 414 ft | 11 kts | 134° |
| 2026-05-06 18:22 | 51.52110 | 7.62384 | 420 ft | 6 kts | 148° |
| 2026-05-06 18:22 | 51.52100 | 7.62394 | 416 ft | 0 kts | 149° |
| 2026-05-06 18:23 | 51.52097 | 7.62397 | 416 ft | 2 kts | 149° |
| 2026-05-06 18:23 | 51.52064 | 7.62399 | 415 ft | 7 kts | 207° |
| 2026-05-06 18:23 | 51.52025 | 7.62312 | 416 ft | 11 kts | 242° |
| 2026-05-06 18:24 | 51.51978 | 7.62178 | 419 ft | 16 kts | 241° |
| 2026-05-06 18:24 | 51.51918 | 7.62008 | 416 ft | 19 kts | 240° |
| 2026-05-06 18:24 | 51.51850 | 7.61817 | 419 ft | 21 kts | 240° |
| 2026-05-06 18:24 | 51.51781 | 7.61620 | 427 ft | 18 kts | 239° |
| 2026-05-06 18:25 | 51.51721 | 7.61449 | 428 ft | 17 kts | 240° |
| 2026-05-06 18:25 | 51.51686 | 7.61351 | 435 ft | 6 kts | 240° |
| 2026-05-06 18:25 | 51.51670 | 7.61306 | 428 ft | 6 kts | 240° |
| 2026-05-06 18:25 | 51.51648 | 7.61244 | 424 ft | 7 kts | 240° |
| 2026-05-06 18:26 | 51.51611 | 7.61213 | 436 ft | 6 kts | 164° |
| 2026-05-06 18:26 | 51.51569 | 7.61238 | 426 ft | 5 kts | 138° |
| 2026-05-06 18:26 | 51.51570 | 7.61284 | 434 ft | 4 kts | 60° |
| 2026-05-06 18:26 | 51.51577 | 7.61287 | 432 ft | 1 kts | 1° |
| 2026-05-06 18:27 | 51.51583 | 7.61283 | 430 ft | 0 kts | 335° |